Riverton, New Zealand
Current Conditions -  °F | °C
As of 9:00 PM on Monday 20 Oct 2014 (Local Time) from NZCH Reporting Station
Light Rain Light Rain  
Wind Chill: 41°   Ceiling: 4200
Heat Index: 45°   Visibility: 6mi
Dew Point: 43°   Wind: 7mph
Humidity: 93%   Direction: 230°SW
Pressure: 30"   Gusts: NA
Location:  46.35°S, 168.01°E
Report Text: NZCH 200800Z AUTO 23006KT 9999 -RA FEW017/// SCT032///BKN042/// 07/06 Q1016 TEMPO 6000 RA
Loading
Personal Weather Stations






























Interactive Weather Map
Tropical Storm Tracking
New forecast layout! Learn more

10-Day Weather Forecast

Advertisements
Track Severe Weather on mobile